createdAt,value
2018-02-22T00:00:05.513Z,17.90
2018-02-22T00:01:05.514Z,13.40
2018-02-22T00:02:05.514Z,14.60
2018-02-22T00:03:05.511Z,16.50
2018-02-22T00:04:05.510Z,19.00
2018-02-22T00:05:05.512Z,16.70
2018-02-22T00:06:05.512Z,18.00
2018-02-22T00:07:05.513Z,18.00
2018-02-22T00:08:05.518Z,14.40
2018-02-22T00:09:05.518Z,13.20
2018-02-22T00:10:05.519Z,17.40
2018-02-22T00:11:05.515Z,16.80
2018-02-22T00:12:05.514Z,18.10
2018-02-22T00:13:05.521Z,21.00
2018-02-22T00:14:05.521Z,19.10
2018-02-22T00:15:05.517Z,18.70
2018-02-22T00:16:05.520Z,18.30
2018-02-22T00:17:05.523Z,19.60
2018-02-22T00:18:05.516Z,17.30
2018-02-22T00:19:05.519Z,16.50
2018-02-22T00:20:05.515Z,17.50
2018-02-22T00:21:05.522Z,18.90
2018-02-22T00:22:05.519Z,17.10
2018-02-22T00:23:05.519Z,17.80
2018-02-22T00:24:05.519Z,18.20
2018-02-22T00:25:05.527Z,19.30
2018-02-22T00:26:05.525Z,17.20
2018-02-22T00:27:05.520Z,16.90
2018-02-22T00:28:05.524Z,17.10
2018-02-22T00:29:05.520Z,18.30
2018-02-22T00:30:05.527Z,18.60
2018-02-22T00:31:05.523Z,19.30
2018-02-22T00:32:05.520Z,21.50
2018-02-22T00:33:05.520Z,19.10
2018-02-22T00:34:05.522Z,17.10
2018-02-22T00:35:05.529Z,18.60
2018-02-22T00:36:05.525Z,19.90
2018-02-22T00:37:05.522Z,19.80
2018-02-22T00:38:05.530Z,20.90
2018-02-22T00:39:05.524Z,21.70
2018-02-22T00:40:05.524Z,20.50
2018-02-22T00:41:05.523Z,23.00
2018-02-22T00:42:05.523Z,27.00
2018-02-22T00:43:05.530Z,32.50
2018-02-22T00:44:05.531Z,29.30
2018-02-22T00:45:05.530Z,31.60
2018-02-22T00:46:05.526Z,31.20
2018-02-22T00:47:05.530Z,30.90
2018-02-22T00:48:05.530Z,25.70
2018-02-22T00:49:05.525Z,29.20
2018-02-22T00:50:05.525Z,33.60
2018-02-22T00:51:05.533Z,31.20
2018-02-22T00:52:05.525Z,30.20
2018-02-22T00:53:05.530Z,34.80
2018-02-22T00:54:05.531Z,32.70
2018-02-22T00:55:05.532Z,31.20
2018-02-22T00:56:05.525Z,33.80
2018-02-22T00:57:05.532Z,32.70
2018-02-22T00:58:05.526Z,33.00
2018-02-22T00:59:05.533Z,29.90
2018-02-22T01:00:05.526Z,29.00
2018-02-22T01:01:05.526Z,27.40
2018-02-22T01:02:05.527Z,29.90
2018-02-22T01:03:05.528Z,25.60
2018-02-22T01:04:05.527Z,23.10
2018-02-22T01:05:05.535Z,22.50
2018-02-22T01:06:05.527Z,24.80
2018-02-22T01:07:05.533Z,22.20
2018-02-22T01:08:05.532Z,22.00
2018-02-22T01:09:05.535Z,28.10
2018-02-22T01:10:05.533Z,27.90
2018-02-22T01:11:05.528Z,28.20
2018-02-22T01:12:05.531Z,28.60
2018-02-22T01:13:05.528Z,32.40
2018-02-22T01:14:05.535Z,31.00
2018-02-22T01:15:05.533Z,30.60
2018-02-22T01:16:05.533Z,27.90
2018-02-22T01:17:05.532Z,31.40
2018-02-22T01:18:05.527Z,33.50
2018-02-22T01:19:05.533Z,37.40
2018-02-22T01:20:05.533Z,31.40
2018-02-22T01:21:05.536Z,32.10
2018-02-22T01:22:05.529Z,27.80
2018-02-22T01:23:05.536Z,28.10
2018-02-22T01:24:05.534Z,28.70
2018-02-22T01:25:05.536Z,28.40
2018-02-22T01:26:05.526Z,29.40
2018-02-22T01:27:05.534Z,34.20
2018-02-22T01:28:05.530Z,36.20
2018-02-22T01:29:05.533Z,37.70
2018-02-22T01:30:05.532Z,34.20
2018-02-22T01:31:05.533Z,38.10
2018-02-22T01:32:05.530Z,33.20
2018-02-22T01:33:05.531Z,38.10
2018-02-22T01:34:05.526Z,40.00
2018-02-22T01:35:05.534Z,47.40
2018-02-22T01:36:05.531Z,40.20
2018-02-22T01:37:05.528Z,42.70
2018-02-22T01:38:05.533Z,37.90
2018-02-22T01:39:05.525Z,37.40
2018-02-22T01:40:05.532Z,36.80
2018-02-22T01:41:05.529Z,38.30
2018-02-22T01:42:05.525Z,34.20
2018-02-22T01:43:05.526Z,34.70
2018-02-22T01:44:05.530Z,34.60
2018-02-22T01:45:05.527Z,41.00
2018-02-22T01:46:05.532Z,40.30
2018-02-22T01:47:05.530Z,43.60
2018-02-22T01:48:05.529Z,202.40
2018-02-22T01:49:05.524Z,99.70
2018-02-22T01:50:05.524Z,80.20
2018-02-22T01:51:05.533Z,44.80
2018-02-22T01:52:05.524Z,36.50
2018-02-22T01:53:05.524Z,35.20
2018-02-22T01:54:05.523Z,36.00
2018-02-22T01:55:05.524Z,34.80
2018-02-22T01:56:05.521Z,42.50
2018-02-22T01:57:05.528Z,164.60
2018-02-22T01:58:05.523Z,100.20
2018-02-22T01:59:05.522Z,38.10
2018-02-22T02:00:05.521Z,42.50
2018-02-22T02:01:05.523Z,34.60
2018-02-22T02:02:05.521Z,40.00
2018-02-22T02:03:05.527Z,36.90
2018-02-22T02:04:05.525Z,39.90
2018-02-22T02:05:05.521Z,39.70
2018-02-22T02:06:05.532Z,39.70
2018-02-22T02:07:05.521Z,36.90
2018-02-22T02:08:05.518Z,77.90
2018-02-22T02:09:05.519Z,59.00
2018-02-22T02:10:05.519Z,120.40
2018-02-22T02:11:05.523Z,42.20
2018-02-22T02:12:05.523Z,48.60
2018-02-22T02:13:05.522Z,61.00
2018-02-22T02:14:05.522Z,41.80
2018-02-22T02:15:05.527Z,37.20
2018-02-22T02:16:05.523Z,32.90
2018-02-22T02:17:05.515Z,26.80
2018-02-22T02:18:05.520Z,28.40
2018-02-22T02:19:05.522Z,32.50
2018-02-22T02:20:05.518Z,32.40
2018-02-22T02:21:05.518Z,34.10
2018-02-22T02:22:05.513Z,34.30
2018-02-22T02:23:05.519Z,38.30
2018-02-22T02:24:05.513Z,37.70
2018-02-22T02:25:05.517Z,36.60
2018-02-22T02:26:05.516Z,37.40
2018-02-22T02:27:05.517Z,41.50
2018-02-22T02:28:05.515Z,39.60
2018-02-22T02:29:05.508Z,38.10
2018-02-22T02:30:05.512Z,38.80
2018-02-22T02:31:05.513Z,34.50
2018-02-22T02:32:05.509Z,34.20
2018-02-22T02:33:05.512Z,35.80
2018-02-22T02:34:05.511Z,32.80
2018-02-22T02:35:05.504Z,34.80
2018-02-22T02:36:05.509Z,37.60
2018-02-22T02:37:05.503Z,36.60
2018-02-22T02:38:05.513Z,84.00
2018-02-22T02:39:05.508Z,180.70
2018-02-22T02:40:05.502Z,564.90
2018-02-22T02:41:05.510Z,137.00
2018-02-22T02:42:05.501Z,77.30
2018-02-22T02:43:05.505Z,42.30
2018-02-22T02:44:05.503Z,41.70
2018-02-22T02:45:05.506Z,86.90
2018-02-22T02:46:05.499Z,126.30
2018-02-22T02:47:05.497Z,139.30
2018-02-22T02:48:05.502Z,259.30
2018-02-22T02:49:05.498Z,123.60
2018-02-22T02:50:05.497Z,47.10
2018-02-22T02:51:05.500Z,46.10
2018-02-22T02:52:05.502Z,118.00
2018-02-22T02:53:05.493Z,265.00
2018-02-22T02:54:05.492Z,820.40
2018-02-22T02:55:05.496Z,625.40
2018-02-22T02:56:05.497Z,138.10
2018-02-22T02:57:05.490Z,731.80
2018-02-22T02:58:05.494Z,211.70
2018-02-22T02:59:05.494Z,186.10
2018-02-22T03:00:05.493Z,69.50
2018-02-22T03:01:05.534Z,956.60
2018-02-22T03:02:05.492Z,294.10
2018-02-22T03:03:05.486Z,80.70
2018-02-22T03:04:05.487Z,147.10
2018-02-22T03:05:05.487Z,51.20
2018-02-22T03:06:05.481Z,129.50
2018-02-22T03:07:05.481Z,201.60
2018-02-22T03:08:05.489Z,114.00
2018-02-22T03:09:05.483Z,120.10
2018-02-22T03:10:05.483Z,101.10
2018-02-22T03:11:05.476Z,52.50
2018-02-22T03:12:05.474Z,62.00
2018-02-22T03:13:05.474Z,475.70
2018-02-22T03:14:05.473Z,433.40
2018-02-22T03:15:05.478Z,712.80
2018-02-22T03:16:05.476Z,679.20
2018-02-22T03:17:05.476Z,310.20
2018-02-22T03:18:05.473Z,129.90
2018-02-22T03:19:05.474Z,52.80
2018-02-22T03:20:05.465Z,44.30
2018-02-22T03:21:05.464Z,36.10
2018-02-22T03:22:05.471Z,36.10
2018-02-22T03:23:05.467Z,31.60
2018-02-22T03:24:05.463Z,36.00
2018-02-22T03:25:05.468Z,31.80
2018-02-22T03:26:05.465Z,31.10
2018-02-22T03:27:05.457Z,29.20
2018-02-22T03:28:05.456Z,32.90
2018-02-22T03:29:05.455Z,34.40
2018-02-22T03:30:05.461Z,33.40
2018-02-22T03:31:05.455Z,32.70
2018-02-22T03:32:05.451Z,32.80
2018-02-22T03:33:05.450Z,35.00
2018-02-22T03:34:05.449Z,37.50
2018-02-22T03:35:05.448Z,34.90
2018-02-22T03:36:05.451Z,36.90
2018-02-22T03:37:05.451Z,35.30
2018-02-22T03:38:05.449Z,32.30
2018-02-22T03:39:05.449Z,30.60
2018-02-22T03:40:05.441Z,28.30
2018-02-22T03:41:05.441Z,29.90
2018-02-22T03:42:05.445Z,33.90
2018-02-22T03:43:05.438Z,36.60
2018-02-22T03:44:05.443Z,36.20
2018-02-22T03:45:05.435Z,32.60
2018-02-22T03:46:05.472Z,36.60
2018-02-22T03:47:05.434Z,36.30
2018-02-22T03:48:05.433Z,35.40
2018-02-22T03:49:05.431Z,34.50
2018-02-22T03:50:05.430Z,34.40
2018-02-22T03:51:05.435Z,35.00
2018-02-22T03:52:05.427Z,42.80
2018-02-22T03:53:05.426Z,41.20
2018-02-22T03:54:05.426Z,35.20
2018-02-22T03:55:05.425Z,29.90
2018-02-22T03:56:05.429Z,31.40
2018-02-22T03:57:05.428Z,31.30
2018-02-22T03:58:05.428Z,33.00
2018-02-22T03:59:05.420Z,30.00
2018-02-22T04:00:05.422Z,31.30
2018-02-22T04:01:05.418Z,32.80
2018-02-22T04:02:05.416Z,30.60
2018-02-22T04:03:05.416Z,31.00
2018-02-22T04:04:05.422Z,30.80
2018-02-22T04:05:05.422Z,29.90
2018-02-22T04:06:05.417Z,28.40
2018-02-22T04:07:05.410Z,28.40
2018-02-22T04:08:05.409Z,30.50
2018-02-22T04:09:05.408Z,31.20
2018-02-22T04:10:05.417Z,29.40
2018-02-22T04:11:05.409Z,33.60
2018-02-22T04:12:05.404Z,36.40
2018-02-22T04:13:05.404Z,32.50
2018-02-22T04:14:05.403Z,31.60
2018-02-22T04:15:05.402Z,41.90
2018-02-22T04:16:05.405Z,39.90
2018-02-22T04:17:05.406Z,35.80
2018-02-22T04:18:05.397Z,36.20
2018-02-22T04:19:05.397Z,35.80
2018-02-22T04:20:05.401Z,45.10
2018-02-22T04:21:05.400Z,147.60
2018-02-22T04:22:05.398Z,89.80
2018-02-22T04:23:05.398Z,42.50
2018-02-22T04:24:05.390Z,34.30
2018-02-22T04:25:05.392Z,32.70
2018-02-22T04:26:05.388Z,35.70
2018-02-22T04:27:05.393Z,43.00
2018-02-22T04:28:05.391Z,38.20
2018-02-22T04:29:05.390Z,38.30
2018-02-22T04:30:05.403Z,34.10
2018-02-22T04:31:05.381Z,52.10
2018-02-22T04:32:05.383Z,83.70
2018-02-22T04:33:05.388Z,74.00
2018-02-22T04:34:05.384Z,40.50
2018-02-22T04:35:05.377Z,31.80
2018-02-22T04:36:05.380Z,31.50
2018-02-22T04:37:05.373Z,27.70
2018-02-22T04:38:05.372Z,25.10
2018-02-22T04:39:05.377Z,27.70
2018-02-22T04:40:05.369Z,30.90
2018-02-22T04:41:05.374Z,44.20
2018-02-22T04:42:05.374Z,31.20
2018-02-22T04:43:05.370Z,32.00
2018-02-22T04:44:05.368Z,32.00
2018-02-22T04:45:05.363Z,29.10
2018-02-22T04:46:05.361Z,27.30
2018-02-22T04:47:05.359Z,27.40
2018-02-22T04:48:05.363Z,28.50
2018-02-22T04:49:05.363Z,28.20
2018-02-22T04:50:05.365Z,30.40
2018-02-22T04:51:05.354Z,29.00
2018-02-22T04:52:05.351Z,32.70
2018-02-22T04:53:05.358Z,32.20
2018-02-22T04:54:05.349Z,146.90
2018-02-22T04:55:05.348Z,37.90
2018-02-22T04:56:05.348Z,34.90
2018-02-22T04:57:05.350Z,33.40
2018-02-22T04:58:05.350Z,36.40
2018-02-22T04:59:05.342Z,55.10
2018-02-22T05:00:05.346Z,33.30
2018-02-22T05:01:05.346Z,34.80
2018-02-22T05:02:05.345Z,34.30
2018-02-22T05:03:05.345Z,34.50
2018-02-22T05:04:05.337Z,28.60
2018-02-22T05:05:05.337Z,22.10
2018-02-22T05:06:05.334Z,12.50
2018-02-22T05:07:05.337Z,7.70
2018-02-22T05:08:05.337Z,11.70
2018-02-22T05:09:05.335Z,18.70
2018-02-22T05:10:05.332Z,24.50
2018-02-22T05:11:05.326Z,26.00
2018-02-22T05:12:05.324Z,28.10
2018-02-22T05:13:05.329Z,31.10
2018-02-22T05:14:05.344Z,31.50
2018-02-22T05:15:05.326Z,25.40
2018-02-22T05:16:05.323Z,27.10
2018-02-22T05:17:05.324Z,26.00
2018-02-22T05:18:05.318Z,26.70
2018-02-22T05:19:05.321Z,28.50
2018-02-22T05:20:05.311Z,27.50
2018-02-22T05:21:05.315Z,27.60
2018-02-22T05:22:05.316Z,29.10
2018-02-22T05:23:05.316Z,31.60
2018-02-22T05:24:05.307Z,33.00
2018-02-22T05:25:05.308Z,34.00
2018-02-22T05:26:05.309Z,32.70
2018-02-22T05:27:05.349Z,30.60
2018-02-22T05:28:05.302Z,34.90
2018-02-22T05:29:05.306Z,29.50
2018-02-22T05:30:05.301Z,31.10
2018-02-22T05:31:05.306Z,25.10
2018-02-22T05:32:05.296Z,30.20
2018-02-22T05:33:05.297Z,30.30
2018-02-22T05:34:05.298Z,29.70
2018-02-22T05:35:05.298Z,31.40
2018-02-22T05:36:05.290Z,33.20
2018-02-22T05:37:05.288Z,29.70
2018-02-22T05:38:05.294Z,29.40
2018-02-22T05:39:05.292Z,31.70
2018-02-22T05:40:05.286Z,25.80
2018-02-22T05:41:05.284Z,33.90
2018-02-22T05:42:05.281Z,35.20
2018-02-22T05:43:05.286Z,31.00
2018-02-22T05:44:05.279Z,29.50
2018-02-22T05:45:05.287Z,27.60
2018-02-22T05:46:05.283Z,36.20
2018-02-22T05:47:05.281Z,30.90
2018-02-22T05:48:05.274Z,34.50
2018-02-22T05:49:05.278Z,29.90
2018-02-22T05:50:05.279Z,31.20
2018-02-22T05:51:05.270Z,31.00
2018-02-22T05:52:05.277Z,32.70
2018-02-22T05:53:05.272Z,32.50
2018-02-22T05:54:05.270Z,30.30
2018-02-22T05:55:05.264Z,24.80
2018-02-22T05:56:05.268Z,28.90
2018-02-22T05:57:05.260Z,26.90
2018-02-22T05:58:05.259Z,26.90
2018-02-22T05:59:05.269Z,26.70
2018-02-22T06:00:05.267Z,32.70
2018-02-22T06:01:05.259Z,30.30
2018-02-22T06:02:05.253Z,26.90
2018-02-22T06:03:05.253Z,35.50
2018-02-22T06:04:05.253Z,36.60
2018-02-22T06:05:05.254Z,31.20
2018-02-22T06:06:05.247Z,27.10
2018-02-22T06:07:05.246Z,31.80
2018-02-22T06:08:05.248Z,31.00
2018-02-22T06:09:05.244Z,29.70
2018-02-22T06:10:05.242Z,32.20
2018-02-22T06:11:05.241Z,27.40
2018-02-22T06:12:05.249Z,28.80
2018-02-22T06:13:05.236Z,31.90
2018-02-22T06:14:05.240Z,32.00
2018-02-22T06:15:05.240Z,33.20
2018-02-22T06:16:05.233Z,30.20
2018-02-22T06:17:05.240Z,29.30
2018-02-22T06:18:05.230Z,30.70
2018-02-22T06:19:05.229Z,27.70
2018-02-22T06:20:05.232Z,28.20
2018-02-22T06:21:05.229Z,25.20
2018-02-22T06:22:05.223Z,25.70
2018-02-22T06:23:05.222Z,25.50
2018-02-22T06:24:05.219Z,25.70
2018-02-22T06:25:05.222Z,27.10
2018-02-22T06:26:05.217Z,24.80
2018-02-22T06:27:05.215Z,31.70
2018-02-22T06:28:05.215Z,33.50
2018-02-22T06:29:05.218Z,30.50
2018-02-22T06:30:05.211Z,34.30
2018-02-22T06:31:05.210Z,28.20
2018-02-22T06:32:05.212Z,30.70
2018-02-22T06:33:05.206Z,26.50
2018-02-22T06:34:05.206Z,22.80
2018-02-22T06:35:05.204Z,29.20
2018-02-22T06:36:05.209Z,31.60
2018-02-22T06:37:05.200Z,30.10
2018-02-22T06:38:05.199Z,26.90
2018-02-22T06:39:05.198Z,30.10
2018-02-22T06:40:05.196Z,33.80
2018-02-22T06:41:05.194Z,29.50
2018-02-22T06:42:05.199Z,34.20
2018-02-22T06:43:05.197Z,31.10
2018-02-22T06:44:05.189Z,31.40
2018-02-22T06:45:05.189Z,28.50
2018-02-22T06:46:05.193Z,27.80
2018-02-22T06:47:05.191Z,27.50
2018-02-22T06:48:05.186Z,29.00
2018-02-22T06:49:05.188Z,27.10
2018-02-22T06:50:05.186Z,32.10
2018-02-22T06:51:05.185Z,31.40
2018-02-22T06:52:05.177Z,30.90
2018-02-22T06:53:05.183Z,31.30
2018-02-22T06:54:05.176Z,30.80
2018-02-22T06:55:05.182Z,34.10
2018-02-22T06:56:05.172Z,33.30
2018-02-22T06:57:05.184Z,28.60
2018-02-22T06:58:05.170Z,32.00
2018-02-22T06:59:05.177Z,29.90
2018-02-22T07:00:05.171Z,35.80
2018-02-22T07:01:05.168Z,35.20
2018-02-22T07:02:05.165Z,38.70
2018-02-22T07:03:05.163Z,33.90
2018-02-22T07:04:05.161Z,33.30
2018-02-22T07:05:05.159Z,31.10
2018-02-22T07:06:05.165Z,31.10
2018-02-22T07:07:05.161Z,29.20
2018-02-22T07:08:05.159Z,34.90
2018-02-22T07:09:05.158Z,35.30
2018-02-22T07:10:05.159Z,37.40
2018-02-22T07:11:05.156Z,33.90
2018-02-22T07:12:05.148Z,36.00
2018-02-22T07:13:05.148Z,34.10
2018-02-22T07:14:05.146Z,37.00
2018-02-22T07:15:05.145Z,29.00
2018-02-22T07:16:05.147Z,30.10
2018-02-22T07:17:05.142Z,29.70
2018-02-22T07:18:05.144Z,29.70
2018-02-22T07:19:05.140Z,32.50
2018-02-22T07:20:05.137Z,34.90
2018-02-22T07:21:05.138Z,38.50
2018-02-22T07:22:05.134Z,33.20
2018-02-22T07:23:16.649Z,32.30
2018-02-22T07:24:05.132Z,35.70
2018-02-22T07:25:05.129Z,38.90
2018-02-22T07:26:05.127Z,35.20
2018-02-22T07:27:05.126Z,38.90
2018-02-22T07:28:05.128Z,36.30
2018-02-22T07:29:05.120Z,42.10
2018-02-22T07:30:05.126Z,58.40
2018-02-22T07:31:05.119Z,62.40
2018-02-22T07:32:05.116Z,60.70
2018-02-22T07:33:05.121Z,45.10
2018-02-22T07:34:05.162Z,34.40
2018-02-22T07:35:05.248Z,33.80
2018-02-22T07:36:05.119Z,33.20
2018-02-22T07:37:05.108Z,35.90
2018-02-22T07:38:05.107Z,31.40
2018-02-22T07:39:05.112Z,33.80
2018-02-22T07:40:05.108Z,38.50
2018-02-22T07:41:05.107Z,36.90
2018-02-22T07:42:05.106Z,35.60
2018-02-22T07:43:05.112Z,41.40
2018-02-22T07:44:05.099Z,40.40
2018-02-22T07:45:05.103Z,35.50
2018-02-22T07:46:05.102Z,50.20
2018-02-22T07:47:05.102Z,36.20
2018-02-22T07:48:05.098Z,33.70
2018-02-22T07:49:05.095Z,30.20
2018-02-22T07:50:05.095Z,29.50
2018-02-22T07:51:05.093Z,30.60
2018-02-22T07:52:05.086Z,33.10
2018-02-22T07:53:05.089Z,35.50
2018-02-22T07:54:05.087Z,31.90
2018-02-22T07:55:05.082Z,32.50
2018-02-22T07:56:05.085Z,29.20
2018-02-22T07:57:05.077Z,37.40
2018-02-22T07:58:05.082Z,43.10
2018-02-22T07:59:05.075Z,33.30
2018-02-22T08:00:05.113Z,32.30
2018-02-22T08:01:05.083Z,36.60
2018-02-22T08:02:05.077Z,37.90
2018-02-22T08:03:05.068Z,32.40
2018-02-22T08:04:05.070Z,35.50
2018-02-22T08:05:05.070Z,35.80
2018-02-22T08:06:05.068Z,32.90
2018-02-22T08:07:05.062Z,36.90
2018-02-22T08:08:05.064Z,34.70
2018-02-22T08:09:05.063Z,40.90
2018-02-22T08:10:05.062Z,37.60
2018-02-22T08:11:05.062Z,34.70
2018-02-22T08:12:05.057Z,30.50
2018-02-22T08:13:05.060Z,33.70
2018-02-22T08:14:05.053Z,30.30
2018-02-22T08:15:05.051Z,32.10
2018-02-22T08:16:05.051Z,26.20
2018-02-22T08:17:05.046Z,33.20
2018-02-22T08:18:05.048Z,28.20
2018-02-22T08:19:05.047Z,30.10
2018-02-22T08:20:05.040Z,27.90
2018-02-22T08:21:05.042Z,29.00
2018-02-22T08:22:05.041Z,31.00
2018-02-22T08:23:05.057Z,32.80
2018-02-22T08:24:05.036Z,34.30
2018-02-22T08:25:05.037Z,28.30
2018-02-22T08:26:05.033Z,32.10
2018-02-22T08:27:05.038Z,26.40
2018-02-22T08:28:05.029Z,26.60
2018-02-22T08:29:05.033Z,27.80
2018-02-22T08:30:05.026Z,26.90
2018-02-22T08:31:05.032Z,23.80
2018-02-22T08:32:05.029Z,27.80
2018-02-22T08:33:05.023Z,34.60
2018-02-22T08:34:05.028Z,31.60
2018-02-22T08:35:05.022Z,31.80
2018-02-22T08:36:05.019Z,31.10
2018-02-22T08:37:05.019Z,36.00
2018-02-22T08:38:05.017Z,35.30
2018-02-22T08:39:05.022Z,29.00
2018-02-22T08:40:05.026Z,29.40
2018-02-22T08:41:05.015Z,32.50
2018-02-22T08:42:05.021Z,34.70
2018-02-22T08:43:05.021Z,32.30
2018-02-22T08:44:05.012Z,33.60
2018-02-22T08:45:05.018Z,31.30
2018-02-22T08:46:05.017Z,33.50
2018-02-22T08:47:05.017Z,28.90
2018-02-22T08:48:05.015Z,32.50
2018-02-22T08:49:05.015Z,24.30
2018-02-22T08:50:05.010Z,43.10
2018-02-22T08:51:05.009Z,133.50
2018-02-22T08:52:05.012Z,51.10
2018-02-22T08:53:05.013Z,65.40
2018-02-22T08:54:05.008Z,68.20
2018-02-22T08:55:05.008Z,92.10
2018-02-22T08:56:05.010Z,35.80
2018-02-22T08:57:05.008Z,29.70
2018-02-22T08:58:05.007Z,27.70
2018-02-22T08:59:05.006Z,32.20
2018-02-22T09:00:05.013Z,29.60
2018-02-22T09:01:05.011Z,28.00
2018-02-22T09:02:05.007Z,36.70
2018-02-22T09:03:05.039Z,26.90
2018-02-22T09:04:05.013Z,32.50
2018-02-22T09:05:05.007Z,26.10
2018-02-22T09:06:05.007Z,26.60
2018-02-22T09:07:05.013Z,31.30
2018-02-22T09:08:05.008Z,27.90
2018-02-22T09:09:05.008Z,29.20
2018-02-22T09:10:05.008Z,29.90
2018-02-22T09:11:05.007Z,26.90
2018-02-22T09:12:05.008Z,29.20
2018-02-22T09:13:05.013Z,36.10
2018-02-22T09:14:05.009Z,27.00
2018-02-22T09:15:05.015Z,27.50
2018-02-22T09:16:05.015Z,29.50
2018-02-22T09:17:05.009Z,27.00
2018-02-22T09:18:05.011Z,26.90
2018-02-22T09:19:05.010Z,27.50
2018-02-22T09:20:05.011Z,28.40
2018-02-22T09:21:05.018Z,25.50
2018-02-22T09:22:05.020Z,23.90
2018-02-22T09:23:05.013Z,24.00
2018-02-22T09:24:05.015Z,25.60
2018-02-22T09:25:05.014Z,21.80
2018-02-22T09:26:05.018Z,21.70
2018-02-22T09:27:05.020Z,23.70
2018-02-22T09:28:05.019Z,23.30
2018-02-22T09:29:05.020Z,18.70
2018-02-22T09:30:05.021Z,22.50
2018-02-22T09:31:05.021Z,22.20
2018-02-22T09:32:05.016Z,19.00
2018-02-22T09:33:05.016Z,19.00
2018-02-22T09:34:05.021Z,23.80
2018-02-22T09:35:05.022Z,21.70
2018-02-22T09:36:05.023Z,22.30
2018-02-22T09:37:05.024Z,21.20
2018-02-22T09:38:05.018Z,21.30
2018-02-22T09:39:05.023Z,25.00
2018-02-22T09:40:05.025Z,20.70
2018-02-22T09:41:05.025Z,21.40
2018-02-22T09:42:05.021Z,23.40
2018-02-22T09:43:05.037Z,24.30
2018-02-22T09:44:05.023Z,20.00
2018-02-22T09:45:05.024Z,18.90
2018-02-22T09:46:05.031Z,19.90
2018-02-22T09:47:05.031Z,22.90
2018-02-22T09:48:05.033Z,20.40
2018-02-22T09:49:05.028Z,20.60
2018-02-22T09:50:05.038Z,20.10
2018-02-22T09:51:05.038Z,19.80
2018-02-22T09:52:05.037Z,18.50
2018-02-22T09:53:05.037Z,19.50
2018-02-22T09:54:05.041Z,21.20
2018-02-22T09:55:05.036Z,19.90
2018-02-22T09:56:05.038Z,19.60
2018-02-22T09:57:05.042Z,21.20
2018-02-22T09:58:05.047Z,17.70
2018-02-22T09:59:05.045Z,22.40
2018-02-22T10:00:05.041Z,17.90
2018-02-22T10:01:05.048Z,18.50
2018-02-22T10:02:05.043Z,19.40
2018-02-22T10:03:05.046Z,18.60
2018-02-22T10:04:05.046Z,17.40
2018-02-22T10:05:05.052Z,18.90
2018-02-22T10:06:05.058Z,18.70
2018-02-22T10:07:05.050Z,16.50
2018-02-22T10:08:05.056Z,16.90
2018-02-22T10:09:05.053Z,17.50
2018-02-22T10:10:05.062Z,17.00
2018-02-22T10:11:05.060Z,17.60
2018-02-22T10:12:05.064Z,21.70
2018-02-22T10:13:05.071Z,18.20
2018-02-22T10:14:05.061Z,19.80
2018-02-22T10:15:05.067Z,19.40
2018-02-22T10:16:05.067Z,18.50
2018-02-22T10:17:05.068Z,18.60
2018-02-22T10:18:05.077Z,16.90
2018-02-22T10:19:05.071Z,19.70
2018-02-22T10:20:05.072Z,20.30
2018-02-22T10:21:05.079Z,18.80
2018-02-22T10:22:05.074Z,21.30
2018-02-22T10:23:05.076Z,20.90
2018-02-22T10:24:05.085Z,21.90
2018-02-22T10:25:05.080Z,19.70
2018-02-22T10:26:05.088Z,18.30
2018-02-22T10:27:05.088Z,18.00
2018-02-22T10:28:05.089Z,19.00
2018-02-22T10:29:05.087Z,18.70
2018-02-22T10:30:05.089Z,23.10
2018-02-22T10:31:05.092Z,20.60
2018-02-22T10:32:05.101Z,20.30
2018-02-22T10:33:05.101Z,22.50
2018-02-22T10:34:05.097Z,21.60
2018-02-22T10:35:05.100Z,22.50
2018-02-22T10:36:05.106Z,22.50
2018-02-22T10:37:05.110Z,22.20
2018-02-22T10:38:05.110Z,21.50
2018-02-22T10:39:05.132Z,17.70
2018-02-22T10:40:05.110Z,20.60
2018-02-22T10:41:05.114Z,21.70
2018-02-22T10:42:05.117Z,22.90
2018-02-22T10:43:05.123Z,21.00
2018-02-22T10:44:05.119Z,23.60
2018-02-22T10:45:05.127Z,25.60
2018-02-22T10:46:05.125Z,22.40
2018-02-22T10:47:05.127Z,24.60
2018-02-22T10:48:05.135Z,24.40
2018-02-22T10:49:05.137Z,24.50
2018-02-22T10:50:05.145Z,24.30
2018-02-22T10:51:05.146Z,24.00
2018-02-22T10:52:05.139Z,25.20
2018-02-22T10:53:05.150Z,23.20
2018-02-22T10:54:05.147Z,26.20
2018-02-22T10:55:05.150Z,24.60
2018-02-22T10:56:05.166Z,23.20
2018-02-22T10:57:05.156Z,26.00
2018-02-22T10:58:05.159Z,25.70
2018-02-22T10:59:05.170Z,25.70
2018-02-22T11:00:05.164Z,21.50
2018-02-22T11:01:05.171Z,22.80
2018-02-22T11:02:05.168Z,25.10
2018-02-22T11:03:05.175Z,26.70
2018-02-22T11:04:05.178Z,23.10
2018-02-22T11:05:05.176Z,23.00
2018-02-22T11:06:05.184Z,23.30
2018-02-22T11:07:05.182Z,26.40
2018-02-22T11:08:05.183Z,26.70
2018-02-22T11:09:05.187Z,24.30
2018-02-22T11:10:05.196Z,22.70
2018-02-22T11:11:05.200Z,24.40
2018-02-22T11:12:05.199Z,22.40
2018-02-22T11:13:05.205Z,22.10
2018-02-22T11:14:05.201Z,25.50
2018-02-22T11:15:05.206Z,22.40
2018-02-22T11:16:05.214Z,25.40
2018-02-22T11:17:05.217Z,24.10
2018-02-22T11:18:05.224Z,21.30
2018-02-22T11:19:05.229Z,23.80
2018-02-22T11:20:05.221Z,21.70
2018-02-22T11:21:05.228Z,25.60
2018-02-22T11:22:05.232Z,23.30
2018-02-22T11:23:05.232Z,24.90
2018-02-22T11:24:05.237Z,21.60
2018-02-22T11:25:05.238Z,25.70
2018-02-22T11:26:05.247Z,21.90
2018-02-22T11:27:05.245Z,21.60
2018-02-22T11:28:05.251Z,24.30
2018-02-22T11:29:05.255Z,23.90
2018-02-22T11:30:05.253Z,22.70
2018-02-22T11:31:05.264Z,23.00
2018-02-22T11:32:05.269Z,24.90
2018-02-22T11:33:05.262Z,25.00
2018-02-22T11:34:05.267Z,20.90
2018-02-22T11:35:05.285Z,20.20
2018-02-22T11:36:05.277Z,23.50
2018-02-22T11:37:05.281Z,22.60
2018-02-22T11:38:05.283Z,23.80
2018-02-22T11:39:05.288Z,21.20
2018-02-22T11:40:05.290Z,21.80
2018-02-22T11:41:05.288Z,22.10
2018-02-22T11:42:05.292Z,19.20
2018-02-22T11:43:05.296Z,19.20
2018-02-22T11:44:05.309Z,19.20
2018-02-22T11:45:05.306Z,19.50
2018-02-22T11:46:05.306Z,18.90
2018-02-22T11:47:05.319Z,21.00
2018-02-22T11:48:05.317Z,19.00
2018-02-22T11:49:05.324Z,19.10
2018-02-22T11:50:05.325Z,18.50
2018-02-22T11:51:05.323Z,17.70
2018-02-22T11:52:05.336Z,17.40
2018-02-22T11:53:05.332Z,13.60
2018-02-22T11:54:05.334Z,12.30
2018-02-22T11:55:05.344Z,12.90
2018-02-22T11:56:05.346Z,17.20
2018-02-22T11:57:05.350Z,19.50
2018-02-22T11:58:05.350Z,19.40
2018-02-22T11:59:05.360Z,19.50
2018-02-22T12:00:05.362Z,16.60
2018-02-22T12:01:05.361Z,17.00
2018-02-22T12:02:05.363Z,11.40
2018-02-22T12:03:05.371Z,12.50
2018-02-22T12:04:05.372Z,16.20
2018-02-22T12:05:05.385Z,15.00
2018-02-22T12:06:05.380Z,13.60
2018-02-22T12:07:05.385Z,15.90
2018-02-22T12:08:05.392Z,16.60
2018-02-22T12:09:05.393Z,17.50
2018-02-22T12:10:05.402Z,21.50
2018-02-22T12:11:05.401Z,22.10
2018-02-22T12:12:05.406Z,22.00
2018-02-22T12:13:05.413Z,21.60
2018-02-22T12:14:05.411Z,19.20
2018-02-22T12:15:05.422Z,20.40
2018-02-22T12:16:05.421Z,20.60
2018-02-22T12:17:05.428Z,19.50
2018-02-22T12:18:05.438Z,19.30
2018-02-22T12:19:05.439Z,21.40
2018-02-22T12:20:05.440Z,16.70
2018-02-22T12:21:05.448Z,18.90
2018-02-22T12:22:05.450Z,20.70
2018-02-22T12:23:05.455Z,18.50
2018-02-22T12:24:05.458Z,18.90
2018-02-22T12:25:05.510Z,21.20
2018-02-22T12:26:05.466Z,19.30
2018-02-22T12:27:05.465Z,18.10
2018-02-22T12:28:05.474Z,20.50
2018-02-22T12:29:05.480Z,15.90
2018-02-22T12:30:05.484Z,14.30
2018-02-22T12:31:05.489Z,13.50
2018-02-22T12:32:05.486Z,10.70
2018-02-22T12:33:05.495Z,12.10
2018-02-22T12:34:05.497Z,17.20
2018-02-22T12:35:05.505Z,17.70
2018-02-22T12:36:05.503Z,20.20
2018-02-22T12:37:05.507Z,20.30
2018-02-22T12:38:05.524Z,18.90
2018-02-22T12:39:05.515Z,21.30
2018-02-22T12:40:05.527Z,21.00
2018-02-22T12:41:05.529Z,19.50
2018-02-22T12:42:05.530Z,18.70
2018-02-22T12:43:05.536Z,16.90
2018-02-22T12:44:05.543Z,19.50
2018-02-22T12:45:05.548Z,21.90
2018-02-22T12:46:05.550Z,21.10
2018-02-22T12:47:05.557Z,20.00
2018-02-22T12:48:05.560Z,21.40
2018-02-22T12:49:05.561Z,18.60
2018-02-22T12:50:05.570Z,17.30
2018-02-22T12:51:05.571Z,18.70